Time;durP1;ratioP1;P1;durP2;ratioP2;P2;SDS_P1;SDS_P2;PMS_P1;PMS_P2;Temp;Humidity;BMP_temperature;BMP_pressure;BME280_temperature;BME280_humidity;BME280_pressure;Samples;Min_cycle;Max_cycle;Signal;HPM_P1;HPM_P2
2023/06/18 00:00:56;;;;;;;14.77;10.27;;;;;;;21.24;100.00;-18597.88;4994374;28;20052;-88
2023/06/18 00:03:22;;;;;;;15.02;10.23;;;;;;;21.21;100.00;-18596.94;4995846;28;20050;-86
2023/06/18 00:05:47;;;;;;;18.15;10.02;;;;;;;21.12;100.00;-18594.63;4994355;28;20056;-87
2023/06/18 00:08:13;;;;;;;13.35;9.85;;;;;;;21.17;100.00;-18595.97;4997436;28;20046;-86
2023/06/18 00:10:38;;;;;;;16.73;10.07;;;;;;;21.15;100.00;-18595.56;4999709;28;20042;-86
2023/06/18 00:13:04;;;;;;;14.40;10.20;;;;;;;21.03;100.00;-18592.31;4999850;28;20076;-86
2023/06/18 00:15:30;;;;;;;13.30;9.55;;;;;;;21.00;100.00;-18591.34;4999567;28;20052;-87
2023/06/18 00:17:55;;;;;;;13.18;10.23;;;;;;;20.90;100.00;-18588.91;5002553;28;20037;-87
2023/06/18 00:20:21;;;;;;;14.40;10.55;;;;;;;20.90;100.00;-18588.78;4995965;28;20046;-86
2023/06/18 00:22:48;;;;;;;15.18;10.05;;;;;;;20.82;100.00;-18586.72;5003641;28;20045;-86
2023/06/18 00:25:14;;;;;;;15.82;10.27;;;;;;;20.89;100.00;-18588.63;5035857;28;20052;-87
2023/06/18 00:27:40;;;;;;;14.75;10.63;;;;;;;20.88;100.00;-18588.22;5035268;28;20050;-87
2023/06/18 00:30:06;;;;;;;12.52;9.93;;;;;;;20.70;100.00;-18583.47;5006719;28;20566;-86
2023/06/18 00:32:32;;;;;;;14.45;9.82;;;;;;;20.63;100.00;-18581.69;5003875;28;20520;-86
2023/06/18 00:35:00;;;;;;;14.10;9.77;;;;;;;20.62;100.00;-18581.28;5010867;28;20068;-86
2023/06/18 00:37:27;;;;;;;14.55;10.40;;;;;;;20.49;100.00;-18578.03;5007574;28;20497;-85
2023/06/18 00:39:54;;;;;;;15.43;10.32;;;;;;;20.54;100.00;-18579.25;4999721;28;20053;-85
2023/06/18 00:42:20;;;;;;;14.68;10.50;;;;;;;20.46;100.00;-18577.22;5005164;28;20033;-87
2023/06/18 00:44:45;;;;;;;14.77;9.93;;;;;;;20.43;100.00;-18576.25;4994256;28;20038;-86
2023/06/18 00:47:12;;;;;;;12.57;10.18;;;;;;;20.47;100.00;-18577.34;5007145;28;20157;-85
2023/06/18 00:49:40;;;;;;;17.48;10.13;;;;;;;20.51;100.00;-18578.56;5007056;28;20077;-85
2023/06/18 00:52:08;;;;;;;12.70;9.77;;;;;;;20.41;100.00;-18575.84;4999759;28;20137;-86
2023/06/18 00:54:35;;;;;;;14.88;10.52;;;;;;;20.44;100.00;-18576.53;5005433;28;20076;-87
2023/06/18 00:57:03;;;;;;;16.90;9.93;;;;;;;20.37;100.00;-18574.63;5005119;28;20551;-86
2023/06/18 00:59:29;;;;;;;15.48;10.52;;;;;;;20.45;100.00;-18576.78;5004199;28;20057;-87
2023/06/18 01:01:56;;;;;;;14.40;9.63;;;;;;;20.39;100.00;-18575.16;5002941;28;20053;-86
2023/06/18 01:04:32;;;;;;;13.27;10.57;;;;;;;20.37;100.00;-18574.63;5002700;28;20077;-86
2023/06/18 01:06:59;;;;;;;12.60;10.23;;;;;;;20.32;100.00;-18573.41;5022311;28;20053;-86
2023/06/18 01:09:26;;;;;;;16.58;10.60;;;;;;;20.40;100.00;-18575.56;5006131;28;20068;-86
2023/06/18 01:11:55;;;;;;;16.35;10.43;;;;;;;20.34;100.00;-18573.81;4998764;28;20053;-86
2023/06/18 01:14:27;;;;;;;15.02;9.77;;;;;;;20.24;100.00;-18571.22;5007533;28;20034;-86
2023/06/18 01:16:59;;;;;;;14.50;10.43;;;;;;;20.14;100.00;-18568.63;5007128;28;20049;-87
2023/06/18 01:19:47;;;;;;;15.25;9.95;;;;;;;20.18;100.00;-18569.72;5008078;28;20587;-86
2023/06/18 01:22:26;;;;;;;14.07;10.80;;;;;;;20.12;100.00;-18567.97;5005943;28;20508;-86
2023/06/18 01:24:57;;;;;;;15.55;10.43;;;;;;;20.02;100.00;-18565.50;5005864;28;20057;-87
2023/06/18 01:27:27;;;;;;;12.95;10.43;;;;;;;20.04;100.00;-18566.03;5007166;28;20085;-87
2023/06/18 01:29:54;;;;;;;14.40;10.20;;;;;;;20.11;100.00;-18567.69;5005338;28;20397;-87
2023/06/18 01:32:21;;;;;;;13.73;10.02;;;;;;;20.07;100.00;-18566.72;5007779;28;20054;-86
2023/06/18 01:34:47;;;;;;;15.77;10.93;;;;;;;19.95;100.00;-18563.59;5017195;28;20048;-88
2023/06/18 01:37:48;;;;;;;14.40;10.48;;;;;;;19.91;100.00;-18562.38;5008823;28;20045;-86
2023/06/18 01:40:32;;;;;;;13.93;10.27;;;;;;;19.79;100.00;-18559.38;5009399;28;20042;-86
2023/06/18 01:43:12;;;;;;;16.02;10.18;;;;;;;19.73;100.00;-18557.75;5024252;28;20038;-87
2023/06/18 01:45:49;;;;;;;17.45;11.02;;;;;;;19.69;100.00;-18556.66;5007430;28;20056;-85
2023/06/18 01:48:18;;;;;;;15.15;11.07;;;;;;;19.58;100.00;-18553.66;5007551;28;20034;-87
2023/06/18 01:50:47;;;;;;;17.15;10.77;;;;;;;19.66;100.00;-18555.69;5006760;28;20042;-86
2023/06/18 01:53:16;;;;;;;13.77;11.07;;;;;;;19.66;100.00;-18555.69;5004670;28;20517;-87
2023/06/18 01:55:44;;;;;;;14.02;11.25;;;;;;;19.53;100.00;-18552.44;4993245;28;20658;-86
2023/06/18 01:58:10;;;;;;;15.70;11.32;;;;;;;19.53;100.00;-18552.44;5012082;28;20041;-87
2023/06/18 02:00:36;;;;;;;16.65;11.23;;;;;;;19.54;100.00;-18552.69;5028351;28;20147;-86
2023/06/18 02:03:04;;;;;;;14.35;10.88;;;;;;;19.49;100.00;-18551.34;5016239;28;20116;-86
2023/06/18 02:05:30;;;;;;;16.15;11.68;;;;;;;19.50;100.00;-18551.47;5007145;28;20151;-86
2023/06/18 02:07:57;;;;;;;15.60;11.55;;;;;;;19.47;100.00;-18550.78;5001982;28;20134;-86
2023/06/18 02:10:23;;;;;;;16.35;12.18;;;;;;;19.43;100.00;-18549.69;5005596;28;20069;-86
2023/06/18 02:12:48;;;;;;;16.73;12.40;;;;;;;19.59;100.00;-18554.06;5010408;28;20069;-86
2023/06/18 02:15:14;;;;;;;16.63;11.52;;;;;;;19.48;100.00;-18551.06;5001927;28;20038;-86
2023/06/18 02:17:40;;;;;;;18.65;13.00;;;;;;;19.39;100.00;-18548.59;5005853;28;20033;-86
2023/06/18 02:20:06;;;;;;;15.60;11.95;;;;;;;19.46;100.00;-18550.53;5001086;28;20096;-86
2023/06/18 02:22:32;;;;;;;14.77;11.32;;;;;;;19.40;100.00;-18548.88;5008055;28;20469;-86
2023/06/18 02:24:57;;;;;;;14.50;10.40;;;;;;;19.32;100.00;-18546.72;5004486;28;20042;-86
2023/06/18 02:27:23;;;;;;;14.55;10.60;;;;;;;19.36;100.00;-18547.78;5002603;28;20492;-85
2023/06/18 02:29:48;;;;;;;15.43;10.45;;;;;;;19.02;100.00;-18538.81;5009532;28;20046;-86
2023/06/18 02:32:13;;;;;;;16.40;12.02;;;;;;;19.11;100.00;-18541.25;5014771;28;20037;-86
2023/06/18 02:34:39;;;;;;;16.27;11.57;;;;;;;19.15;100.00;-18542.22;5005900;28;20050;-87
2023/06/18 02:37:06;;;;;;;16.40;12.20;;;;;;;19.23;100.00;-18544.25;5012448;28;20042;-86
2023/06/18 02:39:32;;;;;;;14.80;11.98;;;;;;;19.26;100.00;-18545.06;5005255;28;20049;-86
2023/06/18 02:41:57;;;;;;;16.15;12.00;;;;;;;19.27;100.00;-18545.34;5005254;28;20038;-86
2023/06/18 02:44:24;;;;;;;16.30;12.13;;;;;;;19.12;100.00;-18541.38;5006954;28;20134;-86
2023/06/18 02:46:49;;;;;;;15.23;11.65;;;;;;;19.01;100.00;-18538.41;5021219;28;20084;-85
2023/06/18 02:49:15;;;;;;;16.23;11.38;;;;;;;19.07;100.00;-18540.16;5002183;28;20165;-85
2023/06/18 02:51:40;;;;;;;17.20;11.27;;;;;;;18.89;100.00;-18535.25;5014505;28;20057;-86
2023/06/18 02:54:05;;;;;;;17.70;12.32;;;;;;;19.15;100.00;-18542.34;4997968;28;20096;-85
2023/06/18 02:56:31;;;;;;;16.40;12.27;;;;;;;19.15;100.00;-18542.34;5032115;28;20029;-88
2023/06/18 02:58:57;;;;;;;19.30;12.82;;;;;;;19.27;100.00;-18545.47;5033598;28;20025;-89
2023/06/18 03:01:26;;;;;;;18.02;13.07;;;;;;;19.08;100.00;-18540.44;5033375;28;20476;-86
2023/06/18 03:03:51;;;;;;;;;;;;;;;19.06;100.00;-18539.75;4996448;28;20053;-86
2023/06/18 03:06:17;;;;;;;16.08;12.35;;;;;;;19.06;100.00;-18539.91;5005351;28;19925;-86
2023/06/18 03:08:42;;;;;;;18.15;13.02;;;;;;;19.02;100.00;-18538.81;5013442;28;20571;-86
2023/06/18 03:11:08;;;;;;;17.67;13.07;;;;;;;19.15;100.00;-18542.34;5012317;28;20095;-86
2023/06/18 03:13:33;;;;;;;17.23;12.73;;;;;;;18.91;100.00;-18535.94;4999725;28;20042;-87
2023/06/18 03:15:59;;;;;;;18.05;12.55;;;;;;;18.91;100.00;-18535.81;5008259;28;20044;-86
2023/06/18 03:18:24;;;;;;;22.05;13.32;;;;;;;19.04;100.00;-18539.34;4990351;28;20053;-86
2023/06/18 03:20:50;;;;;;;17.92;11.80;;;;;;;18.94;100.00;-18536.75;5005122;28;20058;-86
2023/06/18 03:23:15;;;;;;;16.88;13.00;;;;;;;19.04;100.00;-18539.22;4993898;28;20120;-86
2023/06/18 03:25:41;;;;;;;19.52;14.05;;;;;;;18.81;100.00;-18533.22;5004789;28;20057;-86
2023/06/18 03:28:06;;;;;;;20.05;13.23;;;;;;;18.82;100.00;-18533.50;4997560;28;20589;-86
2023/06/18 03:30:32;;;;;;;17.33;13.38;;;;;;;18.81;100.00;-18533.06;5017305;28;20052;-85
2023/06/18 03:32:58;;;;;;;22.00;13.75;;;;;;;18.78;100.00;-18532.25;4996333;28;20096;-86
2023/06/18 03:35:24;;;;;;;18.60;14.00;;;;;;;18.99;100.00;-18538.00;5019938;28;20045;-86
2023/06/18 03:37:50;;;;;;;18.15;13.73;;;;;;;19.03;100.00;-18538.94;5021716;28;20053;-87
2023/06/18 03:40:15;;;;;;;22.83;14.52;;;;;;;19.06;100.00;-18539.75;5029196;28;20093;-89
2023/06/18 03:42:41;;;;;;;20.40;13.02;;;;;;;18.95;100.00;-18536.91;5007125;28;20618;-86
2023/06/18 03:45:06;;;;;;;21.50;14.75;;;;;;;18.99;100.00;-18538.00;5005681;28;20119;-86
2023/06/18 03:47:32;;;;;;;18.65;13.55;;;;;;;18.72;100.00;-18530.88;5012307;28;20038;-88
2023/06/18 03:49:57;;;;;;;21.45;13.90;;;;;;;18.82;100.00;-18533.34;5004949;28;20045;-88
2023/06/18 03:52:22;;;;;;;18.63;14.77;;;;;;;18.85;100.00;-18534.16;5005086;28;20050;-86
2023/06/18 03:54:48;;;;;;;20.52;14.20;;;;;;;18.78;100.00;-18532.25;5007205;28;20052;-83
2023/06/18 03:57:13;;;;;;;21.63;14.32;;;;;;;18.85;100.00;-18534.16;5010583;28;20034;-85
2023/06/18 03:59:39;;;;;;;19.95;14.68;;;;;;;18.98;100.00;-18537.56;5005632;28;20045;-85
2023/06/18 04:02:05;;;;;;;21.90;14.73;;;;;;;19.17;100.00;-18542.75;5006193;28;20515;-84
2023/06/18 04:04:30;;;;;;;22.00;15.48;;;;;;;19.07;100.00;-18540.03;5009707;28;20048;-84
2023/06/18 04:06:56;;;;;;;20.90;14.60;;;;;;;18.98;100.00;-18537.56;5007653;28;20049;-84
2023/06/18 04:09:21;;;;;;;19.27;14.50;;;;;;;18.88;100.00;-18535.00;5008045;28;20573;-85
2023/06/18 04:11:47;;;;;;;22.70;14.45;;;;;;;18.86;100.00;-18534.44;5009158;28;20050;-83
2023/06/18 04:14:13;;;;;;;23.70;15.35;;;;;;;18.89;100.00;-18535.41;5007552;28;20050;-85
2023/06/18 04:16:38;;;;;;;21.75;15.27;;;;;;;18.87;100.00;-18534.72;5000740;28;20046;-84
2023/06/18 04:19:03;;;;;;;22.88;15.63;;;;;;;18.89;100.00;-18535.41;5009598;28;20057;-86
2023/06/18 04:21:29;;;;;;;23.33;16.13;;;;;;;18.92;100.00;-18536.06;5005424;28;20100;-86
2023/06/18 04:23:54;;;;;;;24.63;15.88;;;;;;;19.13;100.00;-18541.66;5016100;28;20048;-87
2023/06/18 04:26:21;;;;;;;20.67;15.23;;;;;;;19.28;100.00;-18545.63;5030437;28;20033;-84
2023/06/18 04:28:46;;;;;;;21.00;15.90;;;;;;;19.17;100.00;-18542.75;5010728;28;20049;-85
2023/06/18 04:31:12;;;;;;;23.85;16.33;;;;;;;19.32;100.00;-18546.72;5014986;28;20144;-86
2023/06/18 04:33:37;;;;;;;24.63;15.73;;;;;;;19.41;100.00;-18549.03;5009067;28;20038;-82
2023/06/18 04:36:03;;;;;;;22.30;15.13;;;;;;;19.49;100.00;-18551.34;5007222;28;20077;-85
2023/06/18 04:38:28;;;;;;;19.38;14.93;;;;;;;19.60;100.00;-18554.34;5008568;28;20046;-85
2023/06/18 04:40:53;;;;;;;23.48;16.25;;;;;;;19.69;100.00;-18556.53;5010208;28;21342;-85
2023/06/18 04:43:19;;;;;;;21.67;15.80;;;;;;;19.68;100.00;-18556.25;5010898;28;20038;-87
2023/06/18 04:45:48;;;;;;;22.02;15.77;;;;;;;19.83;100.00;-18560.34;5013512;28;20056;-83
2023/06/18 04:48:17;;;;;;;21.65;16.70;;;;;;;19.88;100.00;-18561.69;5013988;28;20448;-86
2023/06/18 04:50:42;;;;;;;22.75;15.85;;;;;;;20.11;100.00;-18567.69;5010910;28;20503;-85
2023/06/18 04:53:08;;;;;;;22.85;16.00;;;;;;;19.88;100.00;-18561.69;5033721;28;20093;-86
2023/06/18 04:55:33;;;;;;;22.98;16.70;;;;;;;20.18;100.00;-18569.72;5037867;28;20106;-86
2023/06/18 04:57:58;;;;;;;21.85;16.17;;;;;;;20.08;100.00;-18566.88;5029015;28;20033;-87
2023/06/18 05:00:24;;;;;;;24.80;15.88;;;;;;;20.26;100.00;-18571.91;5011731;28;20117;-85
2023/06/18 05:02:49;;;;;;;22.63;16.00;;;;;;;20.37;100.00;-18574.75;5005548;28;21205;-85
2023/06/18 05:05:15;;;;;;;21.60;15.32;;;;;;;20.48;100.00;-18577.63;5012877;28;20033;-86
2023/06/18 05:07:41;;;;;;;19.67;14.48;;;;;;;20.36;100.00;-18574.47;5011154;28;20046;-86
2023/06/18 05:10:07;;;;;;;20.00;15.90;;;;;;;20.63;100.00;-18581.56;5021717;28;20072;-85
2023/06/18 05:12:32;;;;;;;20.27;14.98;;;;;;;20.50;100.00;-18578.28;5018709;28;20054;-87
2023/06/18 05:14:58;;;;;;;23.10;16.10;;;;;;;20.57;100.00;-18579.94;5011841;28;20038;-87
2023/06/18 05:17:23;;;;;;;22.17;15.77;;;;;;;20.75;100.00;-18584.69;5019785;28;20033;-85
2023/06/18 05:19:48;;;;;;;20.33;14.88;;;;;;;20.79;100.00;-18585.78;5011091;28;21199;-87
2023/06/18 05:22:14;;;;;;;20.80;16.00;;;;;;;21.04;100.00;-18592.44;5011901;28;20030;-85
2023/06/18 05:24:39;;;;;;;21.95;15.73;;;;;;;20.98;100.00;-18590.81;5010967;28;20361;-86
2023/06/18 05:27:05;;;;;;;23.13;14.68;;;;;;;21.12;100.00;-18594.63;5010275;28;20040;-86
2023/06/18 05:29:31;;;;;;;21.52;16.35;;;;;;;21.18;100.00;-18596.38;5014688;28;20040;-86
2023/06/18 05:31:56;;;;;;;20.48;14.93;;;;;;;21.20;100.00;-18596.78;5015408;28;20046;-85
2023/06/18 05:34:21;;;;;;;21.02;15.45;;;;;;;21.46;100.00;-18603.59;5015805;28;20037;-83
2023/06/18 05:36:47;;;;;;;22.95;14.90;;;;;;;21.43;100.00;-18602.91;5012142;28;20058;-83
2023/06/18 05:39:12;;;;;;;18.65;14.40;;;;;;;21.38;100.00;-18601.56;5007011;28;20050;-82
2023/06/18 05:41:38;;;;;;;18.02;13.93;;;;;;;21.54;100.00;-18605.78;5017860;28;20045;-81
2023/06/18 05:44:03;;;;;;;18.42;13.82;;;;;;;21.62;100.00;-18607.94;5011529;28;20623;-84
2023/06/18 05:46:29;;;;;;;21.60;14.80;;;;;;;21.67;100.00;-18609.31;5008064;28;20223;-82
2023/06/18 05:48:54;;;;;;;18.65;13.80;;;;;;;21.85;100.00;-18614.19;4979139;28;20057;-82
2023/06/18 05:51:19;;;;;;;17.73;13.88;;;;;;;22.03;100.00;-18618.94;5011139;28;20036;-82
2023/06/18 05:53:45;;;;;;;17.42;12.93;;;;;;;22.27;100.00;-18625.34;5005863;28;20048;-83
2023/06/18 05:56:10;;;;;;;16.75;12.65;;;;;;;22.39;100.00;-18628.34;4997219;28;20034;-83
2023/06/18 05:58:36;;;;;;;15.25;11.65;;;;;;;22.38;100.00;-18628.19;5010836;28;20064;-85
2023/06/18 06:01:01;;;;;;;16.75;13.05;;;;;;;22.67;100.00;-18635.78;5010248;28;20034;-84
2023/06/18 06:03:27;;;;;;;16.02;13.10;;;;;;;22.71;100.00;-18637.03;5009547;28;20037;-84
2023/06/18 06:05:52;;;;;;;16.33;12.68;;;;;;;22.77;100.00;-18638.38;5010588;28;20099;-82
2023/06/18 06:08:18;;;;;;;18.20;12.80;;;;;;;22.78;100.00;-18638.66;5002452;28;20106;-85
2023/06/18 06:10:43;;;;;;;19.38;13.32;;;;;;;23.03;100.00;-18645.31;5006472;28;20042;-82
2023/06/18 06:13:09;;;;;;;16.55;13.77;;;;;;;23.09;99.23;-18647.06;5013543;28;20041;-80
2023/06/18 06:15:34;;;;;;;18.55;13.73;;;;;;;23.06;98.99;-18646.25;5012599;28;20045;-83
2023/06/18 06:18:01;;;;;;;19.23;12.77;;;;;;;23.10;99.13;-18647.34;5008046;28;20092;-81
2023/06/18 06:20:27;;;;;;;19.05;12.95;;;;;;;23.34;97.66;-18653.72;5005981;28;20040;-83
2023/06/18 06:22:52;;;;;;;19.23;12.63;;;;;;;23.21;97.15;-18650.19;5006510;28;20046;-81
2023/06/18 06:25:18;;;;;;;22.17;12.95;;;;;;;23.52;95.62;-18658.47;5010419;28;20056;-81
2023/06/18 06:27:43;;;;;;;16.08;12.63;;;;;;;23.56;96.39;-18659.53;5009709;28;20046;-82
2023/06/18 06:30:09;;;;;;;18.38;12.75;;;;;;;23.67;95.99;-18662.25;5011135;28;20034;-82
2023/06/18 06:32:35;;;;;;;18.50;13.07;;;;;;;23.78;93.42;-18665.25;5006500;28;20044;-83
2023/06/18 06:35:04;;;;;;;15.52;12.57;;;;;;;24.04;89.45;-18672.28;5009660;28;20034;-83
2023/06/18 06:37:30;;;;;;;19.25;13.77;;;;;;;24.06;88.82;-18672.84;5006168;28;20049;-82
2023/06/18 06:39:56;;;;;;;16.40;13.00;;;;;;;24.06;86.61;-18672.84;4993262;28;20487;-82
2023/06/18 06:42:22;;;;;;;16.85;13.20;;;;;;;24.10;88.56;-18673.91;5006290;28;20068;-81
2023/06/18 06:44:47;;;;;;;15.95;12.30;;;;;;;24.26;85.06;-18678.13;5008683;28;20120;-84
2023/06/18 06:47:12;;;;;;;14.93;12.32;;;;;;;24.27;86.12;-18678.25;5010496;28;20041;-83
2023/06/18 06:49:38;;;;;;;16.55;12.27;;;;;;;24.38;84.37;-18681.09;5006708;28;20045;-81
2023/06/18 06:52:03;;;;;;;15.75;12.10;;;;;;;24.57;81.17;-18686.13;5027866;28;20038;-84
2023/06/18 06:54:29;;;;;;;17.15;12.23;;;;;;;24.58;80.73;-18686.38;5012773;28;20045;-85
2023/06/18 06:56:54;;;;;;;16.92;11.52;;;;;;;24.65;80.99;-18688.41;5009707;28;20052;-86
2023/06/18 06:59:20;;;;;;;15.48;11.65;;;;;;;24.72;75.21;-18690.19;5010012;28;20508;-83
2023/06/18 07:01:45;;;;;;;18.25;11.75;;;;;;;24.68;75.98;-18689.22;4994951;28;22053;-84
2023/06/18 07:04:11;;;;;;;18.95;11.55;;;;;;;24.81;78.71;-18692.47;5009720;28;20108;-85
2023/06/18 07:06:39;;;;;;;15.20;11.70;;;;;;;24.89;75.79;-18694.66;5009814;28;20033;-85
2023/06/18 07:09:08;;;;;;;20.95;12.18;;;;;;;25.02;73.99;-18698.16;5015395;28;20041;-83
2023/06/18 07:11:36;;;;;;;15.88;10.77;;;;;;;25.08;73.23;-18699.66;5011113;28;20046;-84
2023/06/18 07:14:02;;;;;;;15.02;11.20;;;;;;;25.45;71.19;-18709.53;5009305;28;20049;-83
2023/06/18 07:16:27;;;;;;;16.38;10.70;;;;;;;25.65;69.28;-18714.81;5007592;28;20041;-85
2023/06/18 07:18:53;;;;;;;13.30;10.50;;;;;;;25.79;66.59;-18718.47;5024130;28;20050;-85
2023/06/18 07:21:18;;;;;;;15.32;10.38;;;;;;;25.89;67.08;-18721.19;5008255;28;20038;-84
2023/06/18 07:23:44;;;;;;;15.05;10.75;;;;;;;25.75;65.61;-18717.53;5009675;28;20550;-83
2023/06/18 07:26:09;;;;;;;13.90;9.43;;;;;;;25.88;65.29;-18721.03;5010518;28;20597;-84
2023/06/18 07:28:35;;;;;;;11.30;9.18;;;;;;;25.97;63.54;-18723.22;5017427;28;20507;-85
2023/06/18 07:31:01;;;;;;;12.95;9.93;;;;;;;26.19;64.17;-18729.16;5006800;28;20049;-82
2023/06/18 07:33:26;;;;;;;13.45;10.48;;;;;;;26.24;61.51;-18730.50;5007424;28;20038;-82
2023/06/18 07:35:51;;;;;;;12.35;10.20;;;;;;;26.15;62.33;-18728.06;5007459;28;20105;-81
2023/06/18 07:38:17;;;;;;;12.65;10.23;;;;;;;26.30;60.27;-18732.13;5010702;28;20045;-80
2023/06/18 07:40:42;;;;;;;14.27;9.48;;;;;;;26.53;60.03;-18738.22;5004669;28;20046;-80
2023/06/18 07:43:09;;;;;;;11.32;8.88;;;;;;;26.88;57.35;-18747.28;5003968;28;20053;-82
2023/06/18 07:45:35;;;;;;;12.85;9.55;;;;;;;26.97;55.50;-18749.84;5005987;28;20042;-82
2023/06/18 07:48:04;;;;;;;13.88;10.02;;;;;;;26.94;54.57;-18749.03;5009524;28;20046;-82
2023/06/18 07:50:29;;;;;;;11.95;9.38;;;;;;;26.89;55.35;-18747.69;5004211;28;20105;-83
2023/06/18 07:52:55;;;;;;;10.45;9.23;;;;;;;27.09;54.45;-18752.94;5003353;28;20053;-84
2023/06/18 07:55:20;;;;;;;9.82;8.35;;;;;;;27.08;53.49;-18752.69;5009676;28;20460;-84
2023/06/18 07:57:46;;;;;;;10.80;8.20;;;;;;;27.29;52.65;-18758.09;5008339;28;20041;-84
2023/06/18 08:00:11;;;;;;;8.90;7.47;;;;;;;27.23;53.02;-18756.59;5007757;28;20102;-85
2023/06/18 08:02:37;;;;;;;10.18;7.82;;;;;;;27.37;51.17;-18760.25;5003793;28;20045;-84
2023/06/18 08:05:03;;;;;;;11.07;8.20;;;;;;;27.13;52.99;-18753.88;5008709;28;20090;-85
2023/06/18 08:07:29;;;;;;;13.38;8.65;;;;;;;27.27;53.64;-18757.53;5003716;28;20113;-84
2023/06/18 08:09:54;;;;;;;12.95;8.13;;;;;;;27.39;52.79;-18760.78;5002571;28;20417;-83
2023/06/18 08:12:19;;;;;;;13.60;7.43;;;;;;;27.38;49.93;-18760.50;5014700;28;20762;-84
2023/06/18 08:14:46;;;;;;;9.70;7.28;;;;;;;27.53;50.58;-18764.56;5004289;28;20045;-84
2023/06/18 08:17:15;;;;;;;10.80;7.28;;;;;;;27.53;49.33;-18764.41;5001029;28;20042;-84
2023/06/18 08:19:44;;;;;;;8.68;7.35;;;;;;;27.74;47.74;-18770.09;5001276;28;20057;-83
2023/06/18 08:22:10;;;;;;;;;;;;;;;27.78;46.86;-18771.16;5008774;28;20121;-83
2023/06/18 08:24:35;;;;;;;9.98;7.43;;;;;;;27.92;47.58;-18774.81;5011424;28;19972;-84
2023/06/18 08:27:00;;;;;;;11.48;6.60;;;;;;;28.04;44.12;-18777.91;5012098;28;20026;-84
2023/06/18 08:29:26;;;;;;;8.73;7.03;;;;;;;28.11;45.39;-18779.94;5040412;28;20026;-84
2023/06/18 08:31:51;;;;;;;9.05;7.30;;;;;;;28.18;43.50;-18781.56;5024870;28;20030;-84
2023/06/18 08:34:17;;;;;;;11.82;7.38;;;;;;;28.24;44.11;-18783.19;5031192;28;20034;-81
2023/06/18 08:36:46;;;;;;;8.43;7.20;;;;;;;28.26;43.46;-18783.72;5033032;28;20056;-86
2023/06/18 08:39:12;;;;;;;8.57;6.93;;;;;;;28.48;44.43;-18789.66;5032746;28;20037;-86
2023/06/18 08:41:40;;;;;;;10.27;7.05;;;;;;;28.56;43.91;-18791.69;5043546;28;20050;-85
2023/06/18 08:44:05;;;;;;;9.47;6.90;;;;;;;28.55;41.91;-18791.41;5039521;28;20089;-85
2023/06/18 08:46:34;;;;;;;10.55;7.65;;;;;;;28.39;42.60;-18787.22;5034619;28;20315;-85
2023/06/18 08:49:00;;;;;;;9.02;6.75;;;;;;;28.55;43.16;-18791.53;5028184;28;20033;-86
2023/06/18 08:51:26;;;;;;;8.95;6.57;;;;;;;28.45;42.95;-18788.84;5026155;28;20037;-85
2023/06/18 08:54:14;;;;;;;10.68;7.22;;;;;;;28.39;42.19;-18787.09;5028550;28;20062;-84
2023/06/18 08:56:43;;;;;;;10.02;6.47;;;;;;;28.59;40.77;-18792.34;5020792;28;20033;-84
2023/06/18 08:59:10;;;;;;;10.23;7.40;;;;;;;28.59;40.75;-18792.34;5011573;28;20549;-83
2023/06/18 09:01:36;;;;;;;8.75;6.68;;;;;;;28.73;41.88;-18796.25;4999654;28;20045;-84
2023/06/18 09:04:02;;;;;;;8.70;6.55;;;;;;;28.86;41.28;-18799.63;5007637;28;20037;-84
2023/06/18 09:06:28;;;;;;;7.40;6.25;;;;;;;28.85;38.67;-18799.38;5006982;28;20116;-85
2023/06/18 09:08:56;;;;;;;7.90;6.90;;;;;;;28.84;38.28;-18799.09;5007377;28;20042;-84
2023/06/18 09:11:22;;;;;;;9.02;6.68;;;;;;;28.92;39.21;-18801.25;5007307;28;20061;-85
2023/06/18 09:13:47;;;;;;;10.48;6.70;;;;;;;29.07;39.00;-18805.03;4986092;28;20104;-84
2023/06/18 09:16:13;;;;;;;9.30;6.55;;;;;;;29.19;39.44;-18808.41;5008737;28;20079;-84
2023/06/18 09:18:39;;;;;;;7.22;6.28;;;;;;;29.32;38.09;-18811.75;5017090;28;20037;-86
2023/06/18 09:21:05;;;;;;;7.88;6.65;;;;;;;29.30;38.08;-18811.09;5011037;28;20432;-84
2023/06/18 09:23:30;;;;;;;7.95;5.93;;;;;;;29.23;37.79;-18809.47;5009144;28;20048;-84
2023/06/18 09:25:57;;;;;;;8.85;7.57;;;;;;;29.48;38.22;-18815.81;5007509;28;20113;-84
2023/06/18 09:28:27;;;;;;;10.15;6.97;;;;;;;29.46;37.06;-18815.41;5008601;28;20045;-84
2023/06/18 09:31:02;;;;;;;8.73;7.05;;;;;;;29.54;38.04;-18817.41;5021282;28;20054;-84
2023/06/18 09:33:29;;;;;;;10.68;7.95;;;;;;;29.42;38.82;-18814.44;5008858;28;20280;-84
2023/06/18 09:35:59;;;;;;;11.00;7.65;;;;;;;29.39;37.91;-18813.66;5009390;28;20052;-84
2023/06/18 09:38:35;;;;;;;11.63;7.03;;;;;;;29.36;36.76;-18812.72;5004498;28;20046;-84
2023/06/18 09:41:01;;;;;;;10.80;7.30;;;;;;;29.68;36.47;-18821.31;5013427;28;20045;-85
2023/06/18 09:43:34;;;;;;;8.80;7.38;;;;;;;29.73;36.33;-18822.53;5007315;28;20042;-85
2023/06/18 09:46:03;;;;;;;7.88;6.25;;;;;;;29.63;35.85;-18819.97;5008269;28;20048;-84
2023/06/18 09:48:28;;;;;;;9.98;7.50;;;;;;;29.66;36.38;-18820.66;5010282;28;20511;-86
2023/06/18 09:50:56;;;;;;;9.63;7.47;;;;;;;29.79;36.59;-18824.03;5009511;28;20041;-86
2023/06/18 09:53:22;;;;;;;8.30;6.93;;;;;;;29.88;35.03;-18826.44;5011540;28;20030;-84
2023/06/18 09:55:48;;;;;;;8.43;7.28;;;;;;;29.85;34.90;-18825.63;5010062;28;20054;-85
2023/06/18 09:58:14;;;;;;;8.77;7.13;;;;;;;29.87;36.90;-18826.31;5009910;28;20041;-85
2023/06/18 10:00:39;;;;;;;9.75;7.00;;;;;;;29.75;35.38;-18823.06;5007649;28;20034;-87
2023/06/18 10:03:06;;;;;;;9.90;7.22;;;;;;;29.68;33.78;-18821.19;5020858;28;20107;-85
2023/06/18 10:05:32;;;;;;;8.05;6.85;;;;;;;29.80;33.92;-18824.41;5005309;28;20030;-85
2023/06/18 10:07:58;;;;;;;10.70;7.40;;;;;;;29.70;33.92;-18821.59;5006770;28;20038;-84
2023/06/18 10:10:25;;;;;;;9.27;7.07;;;;;;;29.82;34.15;-18824.97;5013485;28;20038;-85
2023/06/18 10:12:53;;;;;;;9.55;6.88;;;;;;;29.98;34.98;-18829.13;5004207;28;20049;-85
2023/06/18 10:15:22;;;;;;;12.20;7.60;;;;;;;29.75;34.42;-18822.94;5002773;28;20072;-85
2023/06/18 10:17:54;;;;;;;10.25;6.90;;;;;;;29.66;34.13;-18820.66;5005499;28;20905;-85
2023/06/18 10:20:23;;;;;;;10.88;6.57;;;;;;;29.75;32.77;-18823.06;5005183;28;20095;-85
2023/06/18 10:22:59;;;;;;;8.77;6.95;;;;;;;29.74;32.16;-18822.66;5001912;28;20099;-86
2023/06/18 10:25:25;;;;;;;8.57;6.30;;;;;;;29.94;31.35;-18827.91;5011136;28;20049;-85
2023/06/18 10:27:51;;;;;;;9.32;6.63;;;;;;;29.81;31.34;-18824.56;5003545;28;20045;-85
2023/06/18 10:30:17;;;;;;;9.77;6.80;;;;;;;29.82;30.87;-18824.81;5010553;28;20029;-85
2023/06/18 10:32:44;;;;;;;8.30;6.70;;;;;;;29.77;30.95;-18823.63;5004864;28;20093;-85
2023/06/18 10:35:12;;;;;;;12.38;6.80;;;;;;;29.79;31.47;-18824.03;5005337;28;20045;-85
2023/06/18 10:37:41;;;;;;;10.80;7.10;;;;;;;29.87;30.04;-18826.31;4985242;28;20095;-85
2023/06/18 10:40:07;;;;;;;9.52;6.90;;;;;;;29.94;32.05;-18827.91;5010517;28;20045;-85
2023/06/18 10:42:34;;;;;;;8.82;7.15;;;;;;;29.88;30.14;-18826.56;5013020;28;20065;-86
2023/06/18 10:45:12;;;;;;;8.15;6.72;;;;;;;30.09;30.12;-18831.97;5008083;28;20037;-86
2023/06/18 10:47:39;;;;;;;8.75;6.57;;;;;;;30.19;30.81;-18834.50;5008927;28;20547;-85
2023/06/18 10:50:08;;;;;;;8.65;6.38;;;;;;;30.45;30.40;-18841.38;5004762;28;20034;-85
2023/06/18 10:52:39;;;;;;;8.75;6.20;;;;;;;30.56;29.97;-18844.34;4998126;28;20048;-85
2023/06/18 10:55:12;;;;;;;9.40;6.82;;;;;;;30.88;31.04;-18852.69;5006097;28;20061;-85
2023/06/18 10:57:48;;;;;;;8.90;6.28;;;;;;;30.67;28.28;-18847.16;5005762;28;20048;-85
2023/06/18 11:00:28;;;;;;;9.32;6.18;;;;;;;30.62;30.76;-18845.94;5002955;28;20930;-86
2023/06/18 11:03:02;;;;;;;8.15;6.60;;;;;;;30.77;30.58;-18849.97;5003563;28;20050;-85
2023/06/18 11:05:36;;;;;;;8.68;6.32;;;;;;;30.91;29.77;-18853.63;5006631;28;20766;-85
2023/06/18 11:08:06;;;;;;;6.95;5.75;;;;;;;31.10;29.76;-18858.59;5005952;28;20785;-86